Terminal Aerodrome Forecast
Issued by NWS

Home | Current Version | Previous Version | Text Only | Print | Product List | Glossary On
Versions: 1 2 3 4 5 6 7 8 9 10 11 12 13 14 15 16 17 18 19 20 21 22
000
FTUS41 KBGM 020534
TAFELM
TAF
KELM 020534Z 0206/0306 00000KT P6SM SKC
     FM020800 30003KT 3SM BR OVC015
      TEMPO 0209/0212 1/2SM FG OVC003
     FM021300 33005KT P6SM BKN050
     FM021900 35006KT P6SM SCT060
     FM022300 02003KT P6SM BKN250=

USA.gov is the U.S. government's official web portal to all federal, state and local government web resources and services.